Huvudsida
METAR-TAF:

METAR-TAF

Flygplatser :

Luang Namtha Airport

Louang Namtha, Laos

latitud: 20-57-38N, longitud: 101-24-09E, höjd: 600 m

Aktuellt väderrapport

Denna rapport gjordes för 9 timmar och 28 minuter sedan, klockan 12:00 UTC
Vind 4 kt från sydost
Temperatur 26°C
Fuktighet 94%
Tryck 1009 hPa
Sikt: 7000 m
Spridda moln på en höjd av 2000 ft
Mulet på en höjd av 10000 ft
i närheten, regn,

METAR: VLLN 251200Z 14004KT 7000 VCRA SCT020 OVC100 26/25 Q1009 NOSIG

Tid: 02:58 (21:28 UTC)

Väderprognos

Denna rapport gjordes för 4 timmar och 28 minuter sedan, klockan 17:00 UTC
Prognos gäller från 25 kl. 18 UTC till 26 kl. 18 UTC
Vind 4 kt från sydost
Sikt 10 km eller mer
Spridda moln på en höjd av 2000 ft
Mulet på en höjd av 10000 ft

TAF: VLLN 251700Z 2518/2618 14004KT 9999 SCT020 OVC100

Aktuella väderrapporter och prognoser från 4000 flygplatser (METAR- och TAF-rapporter).

De tillgängliga stationerna syns som gula och röda prickar på kartan.

För musen över prickarna för att se namnen på stationerna.

Klicka sedan för att få väderrapporter och prognoser.

För att ändra kartan: Klicka på de gröna knapparna med ett svart kors på för att zooma in; den gröna knappen med ett streck på för att zooma ut; eller på de gröna pilarna för angränsande kartor.


METAR-TAF: